Aérodrome :
LOGIN :

S'inscrire | Disclaimer

   EN    FR    IT 

 










Légende :    VFR   VFR Marginal   IFR   IFR Intensif   IFR Très Intensif
Visi : 
Plafond : 
>= 8 km
>= 3000ft
5 à 8 km
1000 à 3000 ft
1500m à 5 km
500 à 1000 ft
800 à 1500m
200 à 500 ft
< 800m
< 200 ft
Symboles :   Orages  Brouillard  Fortes neiges  Fortes précipitations  Vent > 20 kt
SIGMETs :   Divers  Orages  Givrage  Turbulence  Onde Orograph.  Cendres Volcan.






- Altitude de l'aérodrome : 755 ft
- Code IATA : KSC


LZKZ - Kosice

DERNIER METAR :
  • 151500Z 01009KT 330V040 CAVOK M04/M13 Q1016 NOSIG

METARs EXPIRÉS :
  • 151430Z 02009KT CAVOK M04/M13 Q1016 NOSIG
  • 151400Z 02013KT CAVOK M04/M13 Q1016 NOSIG
  • 151330Z 02015KT 9999 FEW030 BKN054 M04/M11 Q1015 NOSIG
  • 151300Z 02015KT 9999 FEW029 BKN058 M04/M11 Q1015 NOSIG
  • 151230Z 02016KT 9999 SCT037 BKN061 M04/M11 Q1015 NOSIG

TAF TAF LZKZ
Valide du 15 à 12h jusqu'au 16 à 12h UTC


151100Z 1512/1612 01012KT 9999 SCT030 BKN050
PROB40
TEMPO 1512/1515 -SN SCT012 BKN025
BECMG 1518/1520 VRB02KT
TEMPO 1521/1602 -SN SCT010 BKN020



MET'MAP, la Météo Aéronautique d'un coup d'oeil ! - Copyright ORBIFLY Décembre 2007 - Disclaimer

ORBIFLY MET'MAP TEAM :

Programmation & Développement : Alexandra Zaïnal
Sur une idée originale de : Baudouin d'Aumeries
Assistance à la programmation : Marc-Olivier Méhu
Soutien technique & logistique : Manuel Goepfert

Contact : metmap@orbifly.com




SOURCES & CREDITS :

   NOAA